createdAt,value
2018-09-21T00:01:08.837Z,5.70
2018-09-21T00:03:37.304Z,5.20
2018-09-21T00:06:05.756Z,5.20
2018-09-21T00:08:34.229Z,4.00
2018-09-21T00:11:02.668Z,4.70
2018-09-21T00:13:31.118Z,4.40
2018-09-21T00:15:59.549Z,5.73
2018-09-21T00:18:27.995Z,5.57
2018-09-21T00:20:56.434Z,5.27
2018-09-21T00:23:24.888Z,5.80
2018-09-21T00:25:53.329Z,5.60
2018-09-21T00:28:21.779Z,5.00
2018-09-21T00:30:50.183Z,5.83
2018-09-21T00:33:18.680Z,5.73
2018-09-21T00:35:47.120Z,4.93
2018-09-21T00:38:15.586Z,4.60
2018-09-21T00:40:43.988Z,5.63
2018-09-21T00:43:12.538Z,5.50
2018-09-21T00:45:41.018Z,5.20
2018-09-21T00:48:09.497Z,5.03
2018-09-21T00:50:38.324Z,4.77
2018-09-21T00:53:06.781Z,6.07
2018-09-21T00:55:35.490Z,5.60
2018-09-21T00:58:03.951Z,4.70
2018-09-21T01:00:32.408Z,5.77
2018-09-21T01:03:00.879Z,5.87
2018-09-21T01:05:29.329Z,6.33
2018-09-21T01:07:57.809Z,5.07
2018-09-21T01:10:26.259Z,4.43
2018-09-21T01:12:54.729Z,5.00
2018-09-21T01:15:23.236Z,5.60
2018-09-21T01:17:51.691Z,5.27
2018-09-21T01:20:20.167Z,4.60
2018-09-21T01:22:48.592Z,4.87
2018-09-21T01:25:17.060Z,5.20
2018-09-21T01:27:45.508Z,5.53
2018-09-21T01:30:14.049Z,5.57
2018-09-21T01:32:42.518Z,5.40
2018-09-21T01:35:10.976Z,5.57
2018-09-21T01:37:39.436Z,4.50
2018-09-21T01:40:07.957Z,5.70
2018-09-21T01:42:36.387Z,6.00
2018-09-21T01:45:05.233Z,5.70
2018-09-21T01:47:33.760Z,5.60
2018-09-21T01:50:02.269Z,5.27
2018-09-21T01:52:30.733Z,4.70
2018-09-21T01:54:59.201Z,4.70
2018-09-21T01:57:27.634Z,5.80
2018-09-21T01:59:56.169Z,4.57
2018-09-21T02:02:24.636Z,5.90
2018-09-21T02:04:53.098Z,5.33
2018-09-21T02:07:21.577Z,4.90
2018-09-21T02:09:50.037Z,4.83
2018-09-21T02:12:18.504Z,5.80
2018-09-21T02:14:46.960Z,5.50
2018-09-21T02:17:15.421Z,5.90
2018-09-21T02:19:43.884Z,6.17
2018-09-21T02:22:12.353Z,5.30
2018-09-21T02:24:40.796Z,5.90
2018-09-21T02:27:09.287Z,5.13
2018-09-21T02:29:37.716Z,5.13
2018-09-21T02:32:06.453Z,6.60
2018-09-21T02:34:34.982Z,6.07
2018-09-21T02:37:03.502Z,5.10
2018-09-21T02:39:31.933Z,4.87
2018-09-21T02:42:00.412Z,5.07
2018-09-21T02:44:28.844Z,4.80
2018-09-21T02:46:57.374Z,5.00
2018-09-21T02:49:25.804Z,5.23
2018-09-21T02:51:54.275Z,6.33
2018-09-21T02:54:22.856Z,5.10
2018-09-21T02:56:51.380Z,4.80
2018-09-21T02:59:19.829Z,5.87
2018-09-21T03:01:48.349Z,5.40
2018-09-21T03:04:16.868Z,5.33
2018-09-21T03:06:45.307Z,6.00
2018-09-21T03:09:13.773Z,5.80
2018-09-21T03:11:42.219Z,5.70
2018-09-21T03:14:10.648Z,5.87
2018-09-21T03:16:39.120Z,6.27
2018-09-21T03:19:07.557Z,5.70
2018-09-21T03:21:36.010Z,5.03
2018-09-21T03:24:04.612Z,5.80
2018-09-21T03:26:33.052Z,7.20
2018-09-21T03:29:01.472Z,5.77
2018-09-21T03:31:29.928Z,6.70
2018-09-21T03:33:58.356Z,6.37
2018-09-21T03:36:26.756Z,5.97
2018-09-21T03:38:55.198Z,5.70
2018-09-21T03:41:23.604Z,6.17
2018-09-21T03:43:52.045Z,5.83
2018-09-21T03:46:20.467Z,6.20
2018-09-21T03:48:48.949Z,6.80
2018-09-21T03:51:17.382Z,5.80
2018-09-21T03:53:45.813Z,5.90
2018-09-21T03:56:14.289Z,6.27
2018-09-21T03:58:42.734Z,5.83
2018-09-21T04:01:11.196Z,7.33
2018-09-21T04:03:39.612Z,6.00
2018-09-21T04:06:08.085Z,5.50
2018-09-21T04:08:36.489Z,5.17
2018-09-21T04:11:04.921Z,5.97
2018-09-21T04:13:33.420Z,6.30
2018-09-21T04:16:01.849Z,6.33
2018-09-21T04:18:30.285Z,6.10
2018-09-21T04:20:58.680Z,5.20
2018-09-21T04:23:27.166Z,5.30
2018-09-21T04:25:55.561Z,5.83
2018-09-21T04:28:23.964Z,6.60
2018-09-21T04:30:52.412Z,5.87
2018-09-21T04:33:20.809Z,5.20
2018-09-21T04:35:49.318Z,5.40
2018-09-21T04:38:17.717Z,6.20
2018-09-21T04:40:46.192Z,5.80
2018-09-21T04:43:14.597Z,6.57
2018-09-21T04:45:43.044Z,6.07
2018-09-21T04:48:11.435Z,6.67
2018-09-21T04:50:40.993Z,6.53
2018-09-21T04:53:09.401Z,5.40
2018-09-21T04:55:37.835Z,6.80
2018-09-21T04:58:06.245Z,5.93
2018-09-21T05:00:34.700Z,6.33
2018-09-21T05:03:03.096Z,5.97
2018-09-21T05:05:31.554Z,6.20
2018-09-21T05:07:59.965Z,6.60
2018-09-21T05:10:28.802Z,7.17
2018-09-21T05:12:57.193Z,5.90
2018-09-21T05:15:25.608Z,5.60
2018-09-21T05:17:55.080Z,7.03
2018-09-21T05:20:23.501Z,6.60
2018-09-21T05:22:51.899Z,6.30
2018-09-21T05:25:22.189Z,6.60
2018-09-21T05:27:50.624Z,6.47
2018-09-21T05:30:19.060Z,6.63
2018-09-21T05:32:47.625Z,6.53
2018-09-21T05:35:16.241Z,5.97
2018-09-21T05:37:44.467Z,6.93
2018-09-21T05:40:12.879Z,7.43
2018-09-21T05:42:41.356Z,6.77
2018-09-21T05:45:09.760Z,6.70
2018-09-21T05:47:38.261Z,6.13
2018-09-21T05:50:06.688Z,6.53
2018-09-21T05:52:36.685Z,7.57
2018-09-21T05:55:05.193Z,6.87
2018-09-21T05:57:33.609Z,7.90
2018-09-21T06:00:03.193Z,6.57
2018-09-21T06:02:31.791Z,7.30
2018-09-21T06:05:08.274Z,6.43
2018-09-21T06:07:37.235Z,6.60
2018-09-21T06:10:06.201Z,6.40
2018-09-21T06:12:34.856Z,6.20
2018-09-21T06:15:03.377Z,6.57
2018-09-21T06:17:31.801Z,6.80
2018-09-21T06:20:11.935Z,6.20
2018-09-21T06:22:30.729Z,6.47
2018-09-21T06:24:59.112Z,7.27
2018-09-21T06:27:27.548Z,7.60
2018-09-21T06:29:56.153Z,7.30
2018-09-21T06:32:24.568Z,7.57
2018-09-21T06:34:53.159Z,6.63
2018-09-21T06:37:21.573Z,7.10
2018-09-21T06:39:50.017Z,6.13
2018-09-21T06:42:18.404Z,6.67
2018-09-21T06:44:46.847Z,6.60
2018-09-21T06:47:15.256Z,6.20
2018-09-21T06:49:43.688Z,6.83
2018-09-21T06:52:12.108Z,7.23
2018-09-21T06:54:41.869Z,6.40
2018-09-21T06:57:10.255Z,7.20
2018-09-21T06:59:38.664Z,6.47
2018-09-21T07:02:07.165Z,7.83
2018-09-21T07:04:35.589Z,6.73
2018-09-21T07:07:04.064Z,7.90
2018-09-21T07:09:32.479Z,7.70
2018-09-21T07:12:00.905Z,6.17
2018-09-21T07:14:29.327Z,6.30
2018-09-21T07:16:59.469Z,7.20
2018-09-21T07:19:27.994Z,6.97
2018-09-21T07:21:56.386Z,7.47
2018-09-21T07:24:26.473Z,7.07
2018-09-21T07:26:56.128Z,7.20
2018-09-21T07:29:24.546Z,7.00
2018-09-21T07:31:52.958Z,6.90
2018-09-21T07:34:21.390Z,7.43
2018-09-21T07:36:49.820Z,7.90
2018-09-21T07:39:18.212Z,6.33
2018-09-21T07:41:46.623Z,6.60
2018-09-21T07:44:15.028Z,7.20
2018-09-21T07:46:43.452Z,7.17
2018-09-21T07:49:11.849Z,6.93
2018-09-21T07:51:40.297Z,7.17
2018-09-21T07:54:08.701Z,7.10
2018-09-21T07:56:37.132Z,8.03
2018-09-21T07:59:05.538Z,7.03
2018-09-21T08:01:34.008Z,6.60
2018-09-21T08:04:02.412Z,5.83
2018-09-21T08:06:30.821Z,6.77
2018-09-21T08:08:59.222Z,7.10
2018-09-21T08:11:27.647Z,5.57
2018-09-21T08:13:56.073Z,6.50
2018-09-21T08:16:24.487Z,6.80
2018-09-21T08:18:52.883Z,8.00
2018-09-21T08:21:21.313Z,7.07
2018-09-21T08:23:49.724Z,7.90
2018-09-21T08:26:18.128Z,6.03
2018-09-21T08:28:46.861Z,8.30
2018-09-21T08:31:15.309Z,6.70
2018-09-21T08:33:43.700Z,6.57
2018-09-21T08:36:12.107Z,7.10
2018-09-21T08:38:40.528Z,7.20
2018-09-21T08:41:08.956Z,6.57
2018-09-21T08:43:37.365Z,6.07
2018-09-21T08:46:05.785Z,6.40
2018-09-21T08:48:34.203Z,6.30
2018-09-21T08:51:02.608Z,7.03
2018-09-21T08:53:31.043Z,7.60
2018-09-21T08:55:59.437Z,6.50
2018-09-21T08:58:27.907Z,7.10
2018-09-21T09:00:56.329Z,6.97
2018-09-21T09:03:24.833Z,6.00
2018-09-21T09:05:54.232Z,6.03
2018-09-21T09:08:24.364Z,7.30
2018-09-21T09:10:53.230Z,5.77
2018-09-21T09:13:21.853Z,6.67
2018-09-21T09:15:51.333Z,7.60
2018-09-21T09:18:19.952Z,6.40
2018-09-21T09:20:48.625Z,5.87
2018-09-21T09:23:17.160Z,6.60
2018-09-21T09:25:45.467Z,6.93
2018-09-21T09:28:13.916Z,6.50
2018-09-21T09:30:42.324Z,6.30
2018-09-21T09:33:10.721Z,6.20
2018-09-21T09:35:39.159Z,7.37
2018-09-21T09:38:07.564Z,6.87
2018-09-21T09:40:35.993Z,7.33
2018-09-21T09:43:04.491Z,6.80
2018-09-21T09:45:32.872Z,6.53
2018-09-21T09:48:01.272Z,7.27
2018-09-21T09:50:29.703Z,5.73
2018-09-21T09:52:58.101Z,6.13
2018-09-21T09:55:26.551Z,6.90
2018-09-21T09:57:54.941Z,7.07
2018-09-21T10:00:28.735Z,7.37
2018-09-21T10:02:58.916Z,6.00
2018-09-21T10:05:27.381Z,7.30
2018-09-21T10:07:55.764Z,7.23
2018-09-21T10:10:24.192Z,6.00
2018-09-21T10:12:54.493Z,6.40
2018-09-21T10:15:22.939Z,6.10
2018-09-21T10:17:51.330Z,7.00
2018-09-21T10:20:19.753Z,6.70
2018-09-21T10:22:50.267Z,5.93
2018-09-21T10:25:18.696Z,6.20
2018-09-21T10:27:47.195Z,6.83
2018-09-21T10:30:15.533Z,6.77
2018-09-21T10:32:43.932Z,7.10
2018-09-21T10:35:12.365Z,7.00
2018-09-21T10:37:40.764Z,7.20
2018-09-21T10:40:09.287Z,6.10
2018-09-21T10:42:37.731Z,6.37
2018-09-21T10:45:06.153Z,6.80
2018-09-21T10:47:34.593Z,6.47
2018-09-21T10:50:03.858Z,5.67
2018-09-21T10:52:32.309Z,6.80
2018-09-21T10:55:00.733Z,6.37
2018-09-21T10:57:29.162Z,6.07
2018-09-21T10:59:57.572Z,7.07
2018-09-21T11:02:26.009Z,5.97
2018-09-21T11:04:54.420Z,6.07
2018-09-21T11:07:22.845Z,6.30
2018-09-21T11:09:51.257Z,6.73
2018-09-21T11:12:19.668Z,6.00
2018-09-21T11:14:48.062Z,6.00
2018-09-21T11:17:16.526Z,6.00
2018-09-21T11:19:44.973Z,6.33
2018-09-21T11:22:13.392Z,5.87
2018-09-21T11:24:41.789Z,6.40
2018-09-21T11:27:10.253Z,5.73
2018-09-21T11:29:38.664Z,6.27
2018-09-21T11:32:07.115Z,5.10
2018-09-21T11:34:35.500Z,6.20
2018-09-21T11:37:03.932Z,5.23
2018-09-21T11:39:32.337Z,5.47
2018-09-21T11:42:00.773Z,6.70
2018-09-21T11:44:29.182Z,5.80
2018-09-21T11:46:57.624Z,5.00
2018-09-21T11:49:26.022Z,4.87
2018-09-21T11:51:54.412Z,5.43
2018-09-21T11:54:22.843Z,4.80
2018-09-21T11:56:51.245Z,4.23
2018-09-21T11:59:19.697Z,4.43
2018-09-21T12:01:48.142Z,3.50
2018-09-21T12:04:16.562Z,3.90
2018-09-21T12:06:44.964Z,4.47
2018-09-21T12:09:13.706Z,4.33
2018-09-21T12:11:42.115Z,4.60
2018-09-21T12:14:10.532Z,4.20
2018-09-21T12:16:38.956Z,4.40
2018-09-21T12:19:07.575Z,3.40
2018-09-21T12:21:36.041Z,4.93
2018-09-21T12:24:04.501Z,5.00
2018-09-21T12:26:32.895Z,4.20
2018-09-21T12:29:01.348Z,5.13
2018-09-21T12:31:29.749Z,4.57
2018-09-21T12:33:59.214Z,5.13
2018-09-21T12:36:27.691Z,5.00
2018-09-21T12:38:56.129Z,4.57
2018-09-21T12:41:24.563Z,4.83
2018-09-21T12:43:52.951Z,4.53
2018-09-21T12:46:26.381Z,5.27
2018-09-21T12:48:57.124Z,5.57
2018-09-21T12:51:25.932Z,4.70
2018-09-21T12:53:54.783Z,5.10
2018-09-21T12:56:23.596Z,4.10
2018-09-21T12:58:52.356Z,3.63
2018-09-21T13:01:22.692Z,4.10
2018-09-21T13:03:51.108Z,3.57
2018-09-21T13:06:19.538Z,4.70
2018-09-21T13:08:47.951Z,3.43
2018-09-21T13:11:16.463Z,4.90
2018-09-21T13:13:44.888Z,3.37
2018-09-21T13:16:13.328Z,3.70
2018-09-21T13:18:41.736Z,3.70
2018-09-21T13:21:10.165Z,4.07
2018-09-21T13:23:38.569Z,4.33
2018-09-21T13:26:07.029Z,3.43
2018-09-21T13:28:35.519Z,3.73
2018-09-21T13:31:03.968Z,3.10
2018-09-21T13:33:32.476Z,3.87
2018-09-21T13:36:00.889Z,3.07
2018-09-21T13:38:29.283Z,4.00
2018-09-21T13:40:57.704Z,2.97
2018-09-21T13:43:26.148Z,3.43
2018-09-21T13:45:54.611Z,3.70
2018-09-21T13:48:24.301Z,3.97
2018-09-21T13:50:52.696Z,3.20
2018-09-21T13:53:21.096Z,3.00
2018-09-21T13:55:49.510Z,2.43
2018-09-21T13:58:17.937Z,3.23
2018-09-21T14:00:46.372Z,3.70
2018-09-21T14:03:14.797Z,3.30
2018-09-21T14:05:43.211Z,3.23
2018-09-21T14:08:11.633Z,2.73
2018-09-21T14:10:40.024Z,2.50
2018-09-21T14:13:08.460Z,2.97
2018-09-21T14:15:36.900Z,3.10
2018-09-21T14:18:06.842Z,3.53
2018-09-21T14:20:35.231Z,3.00
2018-09-21T14:23:03.681Z,3.40
2018-09-21T14:25:32.097Z,1.93
2018-09-21T14:28:00.527Z,0.80
2018-09-21T14:30:28.932Z,0.63
2018-09-21T14:32:57.339Z,0.50
2018-09-21T14:35:25.780Z,0.70
2018-09-21T14:37:54.203Z,0.77
2018-09-21T14:40:22.617Z,0.77
2018-09-21T14:42:51.020Z,0.77
2018-09-21T14:45:19.472Z,0.70
2018-09-21T14:47:47.934Z,0.83
2018-09-21T14:50:16.316Z,0.87
2018-09-21T14:52:44.770Z,0.90
2018-09-21T14:55:13.209Z,1.03
2018-09-21T14:57:41.640Z,0.90
2018-09-21T15:00:10.122Z,1.00
2018-09-21T15:02:38.532Z,1.57
2018-09-21T15:05:06.972Z,1.00
2018-09-21T15:07:35.564Z,0.80
2018-09-21T15:10:04.018Z,0.77
2018-09-21T15:12:32.621Z,1.40
2018-09-21T15:15:01.089Z,1.10
2018-09-21T15:17:29.521Z,1.23
2018-09-21T15:19:57.932Z,1.30
2018-09-21T15:22:26.335Z,1.23
2018-09-21T15:24:54.756Z,0.90
2018-09-21T15:27:23.165Z,1.57
2018-09-21T15:29:51.606Z,1.00
2018-09-21T15:32:20.077Z,1.47
2018-09-21T15:34:48.612Z,1.30
2018-09-21T15:37:17.053Z,1.33
2018-09-21T15:39:45.460Z,1.10
2018-09-21T15:42:13.896Z,2.43
2018-09-21T15:44:42.317Z,1.13
2018-09-21T15:47:10.808Z,1.10
2018-09-21T15:49:39.220Z,0.90
2018-09-21T15:52:07.681Z,1.23
2018-09-21T15:54:36.343Z,1.27
2018-09-21T15:57:04.788Z,1.67
2018-09-21T15:59:33.232Z,0.97
2018-09-21T16:02:01.685Z,1.13
2018-09-21T16:04:31.049Z,1.30
2018-09-21T16:06:59.583Z,1.40
2018-09-21T16:09:27.931Z,1.40
2018-09-21T16:11:56.360Z,1.23
2018-09-21T16:14:24.781Z,1.17
2018-09-21T16:16:53.220Z,1.63
2018-09-21T16:19:21.617Z,1.17
2018-09-21T16:21:50.293Z,0.90
2018-09-21T16:24:18.723Z,1.30
2018-09-21T16:26:47.165Z,1.07
2018-09-21T16:29:15.560Z,1.00
2018-09-21T16:31:43.996Z,1.00
2018-09-21T16:34:12.413Z,1.20
2018-09-21T16:36:40.897Z,1.40
2018-09-21T16:39:10.688Z,1.23
2018-09-21T16:41:39.104Z,1.10
2018-09-21T16:44:07.621Z,1.60
2018-09-21T16:46:36.930Z,1.00
2018-09-21T16:49:05.457Z,1.00
2018-09-21T16:51:33.857Z,1.10
2018-09-21T16:54:02.316Z,1.47
2018-09-21T16:56:30.721Z,1.10
2018-09-21T16:58:59.226Z,1.23
2018-09-21T17:01:27.594Z,1.40
2018-09-21T17:03:56.472Z,1.10
2018-09-21T17:06:24.901Z,1.57
2018-09-21T17:08:53.416Z,1.37
2018-09-21T17:11:22.015Z,1.83
2018-09-21T17:13:50.412Z,1.20
2018-09-21T17:16:18.840Z,1.43
2018-09-21T17:18:47.345Z,1.20
2018-09-21T17:21:15.805Z,1.67
2018-09-21T17:23:44.200Z,1.20
2018-09-21T17:26:12.583Z,1.13
2018-09-21T17:28:41.097Z,1.17
2018-09-21T17:31:09.492Z,1.20
2018-09-21T17:33:37.912Z,1.50
2018-09-21T17:36:06.772Z,1.30
2018-09-21T17:38:35.185Z,1.63
2018-09-21T17:41:03.613Z,1.83
2018-09-21T17:43:32.079Z,1.97
2018-09-21T17:46:00.500Z,1.40
2018-09-21T17:48:28.902Z,1.70
2018-09-21T17:50:57.322Z,1.50
2018-09-21T17:53:25.703Z,1.47
2018-09-21T17:55:54.121Z,1.77
2018-09-21T17:58:22.553Z,1.07
2018-09-21T18:00:51.012Z,1.23
2018-09-21T18:03:19.441Z,1.60
2018-09-21T18:05:47.863Z,1.33
2018-09-21T18:08:16.289Z,1.73
2018-09-21T18:10:44.700Z,1.60
2018-09-21T18:13:13.102Z,1.80
2018-09-21T18:15:41.523Z,1.40
2018-09-21T18:18:09.921Z,1.93
2018-09-21T18:20:38.352Z,1.97
2018-09-21T18:23:06.813Z,1.80
2018-09-21T18:25:35.282Z,1.50
2018-09-21T18:28:03.710Z,1.87
2018-09-21T18:30:32.163Z,1.80
2018-09-21T18:33:00.555Z,1.83
2018-09-21T18:35:29.589Z,1.40
2018-09-21T18:37:57.980Z,1.90
2018-09-21T18:40:26.407Z,1.80
2018-09-21T18:42:54.796Z,1.80
2018-09-21T18:45:23.242Z,2.03
2018-09-21T18:47:51.669Z,1.70
2018-09-21T18:50:20.118Z,1.73
2018-09-21T18:52:48.540Z,2.17
2018-09-21T18:55:16.937Z,1.97
2018-09-21T18:57:45.363Z,1.67
2018-09-21T19:00:13.834Z,2.03
2018-09-21T19:02:42.272Z,1.70
2018-09-21T19:05:10.670Z,2.13
2018-09-21T19:07:39.163Z,2.50
2018-09-21T19:10:07.587Z,2.00
2018-09-21T19:12:36.076Z,1.97
2018-09-21T19:15:04.555Z,1.80
2018-09-21T19:17:32.985Z,2.00
2018-09-21T19:20:01.384Z,1.93
2018-09-21T19:22:29.832Z,1.70
2018-09-21T19:24:58.244Z,2.20
2018-09-21T19:27:26.672Z,2.50
2018-09-21T19:29:55.072Z,2.03
2018-09-21T19:32:23.513Z,1.47
2018-09-21T19:34:51.957Z,1.80
2018-09-21T19:37:20.379Z,2.27
2018-09-21T19:39:48.789Z,2.33
2018-09-21T19:42:17.212Z,2.00
2018-09-21T19:44:45.667Z,2.30
2018-09-21T19:47:14.049Z,2.20
2018-09-21T19:49:42.452Z,2.63
2018-09-21T19:52:10.888Z,2.10
2018-09-21T19:54:39.410Z,2.13
2018-09-21T19:57:08.612Z,2.63
2018-09-21T19:59:37.023Z,2.43
2018-09-21T20:02:05.445Z,2.30
2018-09-21T20:04:33.860Z,2.13
2018-09-21T20:07:02.264Z,1.80
2018-09-21T20:09:31.234Z,1.80
2018-09-21T20:11:59.732Z,2.10
2018-09-21T20:14:28.096Z,2.57
2018-09-21T20:16:56.622Z,1.83
2018-09-21T20:19:25.072Z,3.37
2018-09-21T20:21:53.451Z,1.73
2018-09-21T20:24:21.867Z,2.03
2018-09-21T20:26:50.295Z,1.90
2018-09-21T20:29:18.705Z,2.27
2018-09-21T20:31:52.412Z,1.43
2018-09-21T20:34:20.826Z,1.27
2018-09-21T20:36:49.354Z,1.17
2018-09-21T20:39:17.789Z,1.50
2018-09-21T20:41:46.202Z,1.23
2018-09-21T20:44:14.760Z,1.97
2018-09-21T20:46:43.171Z,1.37
2018-09-21T20:49:11.614Z,1.00
2018-09-21T20:51:40.071Z,1.10
2018-09-21T20:54:08.456Z,1.60
2018-09-21T20:56:36.864Z,1.40
2018-09-21T20:59:05.273Z,2.60
2018-09-21T21:01:33.704Z,0.80
2018-09-21T21:04:02.084Z,0.97
2018-09-21T21:06:30.545Z,1.40
2018-09-21T21:08:58.952Z,0.80
2018-09-21T21:11:27.384Z,1.37
2018-09-21T21:13:55.779Z,1.50
2018-09-21T21:16:24.201Z,1.40
2018-09-21T21:18:52.612Z,1.00
2018-09-21T21:21:21.044Z,1.03
2018-09-21T21:23:49.452Z,1.20
2018-09-21T21:26:19.228Z,1.57
2018-09-21T21:28:47.639Z,1.10
2018-09-21T21:31:16.083Z,1.27
2018-09-21T21:33:44.485Z,0.93
2018-09-21T21:36:12.894Z,1.00
2018-09-21T21:38:41.431Z,0.97
2018-09-21T21:41:09.922Z,0.80
2018-09-21T21:43:38.656Z,2.60
2018-09-21T21:46:07.231Z,1.03
2018-09-21T21:48:35.624Z,0.60
2018-09-21T21:51:04.040Z,1.27
2018-09-21T21:53:32.451Z,0.87
2018-09-21T21:56:00.852Z,0.87
2018-09-21T21:58:29.271Z,1.30
2018-09-21T22:01:02.996Z,1.23
2018-09-21T22:03:31.412Z,0.90
2018-09-21T22:05:59.813Z,0.90
2018-09-21T22:08:28.232Z,1.40
2018-09-21T22:10:56.652Z,0.80
2018-09-21T22:13:30.220Z,0.80
2018-09-21T22:15:58.603Z,1.00
2018-09-21T22:18:27.013Z,0.90
2018-09-21T22:20:55.412Z,0.83
2018-09-21T22:23:23.823Z,0.90
2018-09-21T22:25:52.218Z,0.97
2018-09-21T22:28:20.649Z,1.00
2018-09-21T22:30:49.101Z,1.00
2018-09-21T22:33:17.551Z,0.77
2018-09-21T22:35:46.009Z,0.90
2018-09-21T22:38:14.404Z,0.77
2018-09-21T22:40:42.844Z,0.70
2018-09-21T22:43:11.258Z,0.80
2018-09-21T22:45:39.676Z,0.60
2018-09-21T22:48:08.094Z,0.70
2018-09-21T22:50:36.496Z,0.87
2018-09-21T22:53:04.941Z,0.73
2018-09-21T22:55:33.359Z,0.70
2018-09-21T22:58:01.763Z,0.63
2018-09-21T23:00:30.165Z,0.90
2018-09-21T23:02:58.597Z,0.80
2018-09-21T23:05:26.992Z,0.57
2018-09-21T23:07:55.383Z,0.90
2018-09-21T23:10:23.911Z,0.90
2018-09-21T23:12:52.307Z,0.80
2018-09-21T23:15:20.721Z,0.73
2018-09-21T23:17:49.241Z,0.77
2018-09-21T23:20:17.654Z,0.70
2018-09-21T23:22:46.063Z,0.80
2018-09-21T23:25:14.478Z,0.73
2018-09-21T23:27:43.117Z,0.60
2018-09-21T23:30:11.544Z,1.30
2018-09-21T23:32:39.992Z,0.83
2018-09-21T23:35:08.485Z,2.00
2018-09-21T23:37:36.889Z,0.87
2018-09-21T23:40:05.348Z,1.47
2018-09-21T23:42:33.748Z,0.83
2018-09-21T23:45:02.192Z,0.60
2018-09-21T23:47:30.609Z,0.90
2018-09-21T23:49:59.053Z,0.63
2018-09-21T23:52:27.452Z,0.70
2018-09-21T23:54:56.643Z,0.83
2018-09-21T23:57:43.125Z,0.73
